KDYS/DYS METAR and TAF weather

Enter ICAO airport designator
Station Type Date Time Source
KDYS METAR 2021/09/16 20:56 UTC NOAA

KDYS 162056Z AUTO 08007KT 10SM CLR 33/13 A2987 RMK AO2 SLP070 T03280129 57024 $


Station Type Date Time Source
KDYS Decoded METAR 2021/09/16 20:56 UTC NOAA

Abilene, Dyess Air Force Base, TX, United States (KDYS) 32-25-12N 099-51-25W
Sep 16, 2021 - 04:56 PM EDT / 2021.09.16 2056 UTC
Wind: from the E (080 degrees) at 8 MPH (7 KT):0
Visibility: 10 mile(s):0
Sky conditions: clear
Temperature: 91.0 F (32.8 C)
Dew Point: 55.2 F (12.9 C)
Relative Humidity: 29%
Pressure (altimeter): 29.87 in. Hg (1011 hPa)
Pressure tendency: 0.07 inches (2.4 hPa) lower than three hours ago
ob: KDYS 162056Z AUTO 08007KT 10SM CLR 33/13 A2987 RMK AO2 SLP070 T03280129 57024
cycle: 21

Station Type Date Time Source
KDYS TAF 2021/09/16 20:03 UTC NOAA

TAF KDYS 162000Z 1620/1802 VRB06KT 9999 FEW060 QNH2984INS
BECMG 1706/1707 16009KT 9999 SCT060 QNH2988INS TX32/1621Z TN21/1712Z

Example: see airport list